Opelika, Alabama
Current Conditions -  °F | °C
As of 7:35 PM on Monday 20 Oct 2014 (Local Time) from KAUO Reporting Station
Clear Clear  
Wind Chill: 61°   Ceiling: Unl
Heat Index: 61°   Visibility: 10mi
Dew Point: 50°   Wind: 5mph
Humidity: 68%   Direction: 350°N
Pressure: 30.05"   Gusts: NA
Location:  32.65°N, 85.38°W
Report Text: KAUO 210035Z AUTO 35004KT 10SM CLR 16/10 A3005 RMK AO1
Loading
Personal Weather Stations






























Interactive Weather Map New forecast layout! Learn more

10-Day Weather Forecast

Advertisements
Track Severe Weather on mobile